Time;durP1;ratioP1;P1;durP2;ratioP2;P2;SDS_P1;SDS_P2;PMS_P1;PMS_P2;Temp;Humidity;BMP_temperature;BMP_pressure;BME280_temperature;BME280_humidity;BME280_pressure;Samples;Min_cycle;Max_cycle;Signal;HPM_P1;HPM_P2
2023/06/09 00:02:18;;;;;;;9.65;4.10;;;;;;;16.54;100.00;101380.78;5134852;27;20528;-53
2023/06/09 00:04:50;;;;;;;14.10;4.00;;;;;;;16.41;100.00;101382.75;5153330;27;20066;-54
2023/06/09 00:07:19;;;;;;;10.98;3.63;;;;;;;16.36;100.00;101383.97;5153288;27;20062;-54
2023/06/09 00:09:48;;;;;;;8.57;3.53;;;;;;;16.38;100.00;101376.69;5156922;27;20074;-51
2023/06/09 00:12:16;;;;;;;10.25;3.60;;;;;;;16.35;100.00;101379.63;5154539;27;20099;-54
2023/06/09 00:14:44;;;;;;;13.38;4.03;;;;;;;16.34;100.00;101379.75;5154093;27;20052;-54
2023/06/09 00:17:15;;;;;;;11.40;3.97;;;;;;;16.33;100.00;101383.34;5153387;27;20563;-64
2023/06/09 00:19:44;;;;;;;11.48;3.85;;;;;;;16.33;100.00;101376.25;5152223;27;20042;-50
2023/06/09 00:22:15;;;;;;;9.82;3.53;;;;;;;16.22;100.00;101377.13;5156525;27;20039;-54
2023/06/09 00:24:45;;;;;;;13.63;3.78;;;;;;;16.21;100.00;101371.91;5156480;27;20564;-54
2023/06/09 00:27:13;;;;;;;10.32;3.80;;;;;;;16.10;100.00;101378.13;5156526;27;20113;-54
2023/06/09 00:29:42;;;;;;;10.77;3.33;;;;;;;16.08;100.00;101372.06;5137674;27;20038;-64
2023/06/09 00:32:11;;;;;;;13.07;3.78;;;;;;;16.10;100.00;101372.81;5156334;27;20087;-65
2023/06/09 00:34:40;;;;;;;14.73;4.20;;;;;;;16.01;100.00;101373.53;5156180;27;20047;-65
2023/06/09 00:37:08;;;;;;;10.50;3.33;;;;;;;16.11;100.00;101371.81;5156126;27;20054;-65
2023/06/09 00:39:41;;;;;;;9.98;3.70;;;;;;;16.01;100.00;101369.06;5155791;27;20051;-64
2023/06/09 00:42:09;;;;;;;12.77;3.80;;;;;;;15.99;100.00;101367.50;5156200;27;20054;-64
2023/06/09 00:44:37;;;;;;;11.00;3.58;;;;;;;16.00;100.00;101362.06;5156090;27;20389;-64
2023/06/09 00:47:06;;;;;;;14.15;3.90;;;;;;;15.86;100.00;101359.69;5134499;27;20046;-65
2023/06/09 00:49:35;;;;;;;11.65;3.70;;;;;;;15.88;100.00;101363.03;5152403;27;20035;-64
2023/06/09 00:52:05;;;;;;;13.25;3.38;;;;;;;15.82;100.00;101366.19;5152783;27;20046;-64
2023/06/09 00:54:34;;;;;;;11.98;3.80;;;;;;;15.79;100.00;101366.38;5155382;27;20043;-54
2023/06/09 00:57:05;;;;;;;13.20;3.83;;;;;;;15.71;100.00;101367.84;5155726;27;20035;-53
2023/06/09 00:59:35;;;;;;;10.60;4.40;;;;;;;15.71;100.00;101378.44;5154822;27;20069;-53
2023/06/09 01:02:05;;;;;;;12.18;3.75;;;;;;;15.70;100.00;101373.28;5152542;27;20043;-54
2023/06/09 01:04:34;;;;;;;10.52;4.20;;;;;;;15.72;100.00;101369.53;5152172;27;20580;-54
2023/06/09 01:07:17;;;;;;;12.88;4.00;;;;;;;15.70;100.00;101366.16;5153007;27;20126;-55
2023/06/09 01:09:51;;;;;;;11.70;3.72;;;;;;;15.69;100.00;101369.78;5152554;27;20053;-54
2023/06/09 01:12:37;;;;;;;9.55;3.28;;;;;;;15.63;100.00;101370.25;5150667;27;20224;-53
2023/06/09 01:15:12;;;;;;;12.00;3.53;;;;;;;15.63;100.00;101374.72;5153224;27;20362;-51
2023/06/09 01:17:43;;;;;;;11.95;3.63;;;;;;;15.53;100.00;101366.66;5151402;27;20531;-53
2023/06/09 01:20:15;;;;;;;10.68;3.35;;;;;;;15.43;100.00;101365.66;5133234;27;20221;-54
2023/06/09 01:22:51;;;;;;;11.25;3.38;;;;;;;15.33;100.00;101371.66;5155442;27;20557;-52
2023/06/09 01:25:34;;;;;;;8.40;3.45;;;;;;;15.31;100.00;101376.25;5155385;27;20050;-52
2023/06/09 01:28:05;;;;;;;;;;;;;;;15.33;100.00;101366.38;5137168;27;20043;-54
2023/06/09 01:30:36;;;;;;;11.50;3.88;;;;;;;15.26;100.00;101366.97;5154795;27;20418;-52
2023/06/09 01:33:08;;;;;;;12.25;3.90;;;;;;;15.25;100.00;101367.94;5152372;27;20509;-51
2023/06/09 01:35:37;;;;;;;14.77;3.88;;;;;;;15.27;100.00;101361.56;5151311;27;20388;-53
2023/06/09 01:38:07;;;;;;;13.10;4.05;;;;;;;15.26;100.00;101362.50;5153760;27;20054;-54
2023/06/09 01:40:37;;;;;;;11.68;3.95;;;;;;;15.22;100.00;101363.72;5154940;27;20044;-54
2023/06/09 01:43:06;;;;;;;12.05;3.90;;;;;;;15.11;100.00;101356.59;5132816;27;20058;-53
2023/06/09 01:45:35;;;;;;;11.95;3.58;;;;;;;15.09;100.00;101363.78;5151643;27;20038;-53
2023/06/09 01:48:10;;;;;;;16.25;3.83;;;;;;;15.06;100.00;101368.50;5152047;27;20034;-54
2023/06/09 01:50:42;;;;;;;11.00;3.88;;;;;;;14.99;100.00;101366.28;5134899;27;20070;-55
2023/06/09 01:53:16;;;;;;;9.23;3.65;;;;;;;14.97;100.00;101362.94;5154672;27;20087;-54
2023/06/09 01:55:51;;;;;;;12.32;3.75;;;;;;;14.85;100.00;101362.03;5154889;27;20051;-53
2023/06/09 01:58:25;;;;;;;11.15;3.90;;;;;;;14.89;100.00;101362.66;5153669;27;20644;-54
2023/06/09 02:00:57;;;;;;;13.15;3.45;;;;;;;14.92;100.00;101362.44;5151760;27;20522;-52
2023/06/09 02:03:28;;;;;;;11.65;3.70;;;;;;;14.80;100.00;101356.25;5153444;27;20053;-53
2023/06/09 02:05:58;;;;;;;12.20;4.05;;;;;;;14.75;100.00;101352.25;5154719;27;20103;-53
2023/06/09 02:08:30;;;;;;;13.18;4.40;;;;;;;14.63;100.00;101354.88;5153221;27;20058;-54
2023/06/09 02:11:02;;;;;;;13.00;3.67;;;;;;;14.65;100.00;101352.94;5150200;27;20075;-54
2023/06/09 02:13:31;;;;;;;13.82;4.07;;;;;;;14.54;100.00;101358.16;5151884;27;20122;-53
2023/06/09 02:15:59;;;;;;;11.45;3.72;;;;;;;14.62;100.00;101337.25;5135900;27;20046;-51
2023/06/09 02:18:27;;;;;;;12.13;3.78;;;;;;;14.54;100.00;101340.47;5150779;27;20042;-53
2023/06/09 02:20:58;;;;;;;13.85;4.00;;;;;;;14.52;100.00;101354.81;5150639;27;20031;-52
2023/06/09 02:23:27;;;;;;;12.30;3.75;;;;;;;14.52;100.00;101355.63;5150212;27;20046;-53
2023/06/09 02:25:55;;;;;;;13.50;4.28;;;;;;;14.47;100.00;101343.69;5134203;27;20050;-53
2023/06/09 02:28:24;;;;;;;14.30;3.70;;;;;;;14.47;100.00;101341.88;5154190;27;20039;-50
2023/06/09 02:30:53;;;;;;;11.93;3.33;;;;;;;14.37;100.00;101341.72;5153898;27;20038;-64
2023/06/09 02:33:24;;;;;;;14.98;3.90;;;;;;;14.29;100.00;101341.44;5153222;27;20037;-64
2023/06/09 02:35:55;;;;;;;12.35;4.45;;;;;;;14.33;100.00;101339.44;5150851;27;20070;-65
2023/06/09 02:38:24;;;;;;;12.43;4.45;;;;;;;14.29;100.00;101341.44;5150425;27;20099;-65
2023/06/09 02:40:53;;;;;;;11.65;3.55;;;;;;;14.37;100.00;101348.84;5153036;27;20043;-65
2023/06/09 02:43:21;;;;;;;13.13;4.35;;;;;;;14.36;100.00;101350.63;5153873;27;20520;-63
2023/06/09 02:45:51;;;;;;;15.95;4.00;;;;;;;14.35;100.00;101340.16;5154198;27;20070;-64
2023/06/09 02:48:19;;;;;;;11.77;3.78;;;;;;;14.34;100.00;101344.59;5135640;27;20085;-52
2023/06/09 02:50:48;;;;;;;15.35;3.97;;;;;;;14.25;100.00;101349.69;5152769;27;20047;-51
2023/06/09 02:53:19;;;;;;;14.52;4.10;;;;;;;14.24;100.00;101353.31;5150939;27;20512;-65
2023/06/09 02:55:47;;;;;;;15.05;4.20;;;;;;;14.11;100.00;101345.41;5153567;27;20095;-63
2023/06/09 02:58:16;;;;;;;14.15;4.03;;;;;;;14.17;100.00;101347.63;5153818;27;20442;-65
2023/06/09 03:00:44;;;;;;;13.80;4.47;;;;;;;14.12;100.00;101350.59;5154092;27;20087;-52
2023/06/09 03:03:17;;;;;;;12.57;3.95;;;;;;;14.10;100.00;101349.03;5153828;27;20054;-64
2023/06/09 03:05:46;;;;;;;16.65;4.10;;;;;;;14.10;100.00;101351.69;5154074;27;20536;-53
2023/06/09 03:08:14;;;;;;;13.98;4.53;;;;;;;14.00;100.00;101347.06;5135042;27;20054;-51
2023/06/09 03:10:42;;;;;;;11.05;4.07;;;;;;;14.02;100.00;101345.13;5154006;27;20703;-52
2023/06/09 03:13:10;;;;;;;12.43;4.10;;;;;;;13.98;100.00;101348.13;5134103;27;20386;-51
2023/06/09 03:15:40;;;;;;;12.23;3.55;;;;;;;13.91;100.00;101346.88;5150967;27;20051;-52
2023/06/09 03:18:08;;;;;;;11.52;3.55;;;;;;;13.91;100.00;101350.34;5150229;27;20047;-51
2023/06/09 03:20:39;;;;;;;10.82;3.72;;;;;;;13.88;100.00;101355.00;5149948;27;20038;-53
2023/06/09 03:23:08;;;;;;;12.13;4.10;;;;;;;13.90;100.00;101350.47;5153352;27;20039;-52
2023/06/09 03:25:37;;;;;;;12.07;4.07;;;;;;;13.81;100.00;101357.22;5153731;27;20038;-53
2023/06/09 03:28:05;;;;;;;13.68;4.70;;;;;;;13.82;100.00;101358.94;5153668;27;20457;-52
2023/06/09 03:30:33;;;;;;;12.35;4.15;;;;;;;13.81;100.00;101355.44;5151646;27;20035;-63
2023/06/09 03:33:02;;;;;;;14.50;4.38;;;;;;;13.74;100.00;101362.09;5150621;27;20578;-53
2023/06/09 03:35:30;;;;;;;10.77;4.15;;;;;;;13.71;100.00;101356.19;5130578;27;20053;-54
2023/06/09 03:38:00;;;;;;;11.63;3.90;;;;;;;13.65;100.00;101360.13;5150557;27;20679;-52
2023/06/09 03:40:28;;;;;;;16.95;4.38;;;;;;;13.66;100.00;101356.50;5149300;27;20080;-54
2023/06/09 03:42:59;;;;;;;13.07;4.47;;;;;;;13.63;100.00;101354.94;5153008;27;20557;-53
2023/06/09 03:45:27;;;;;;;14.65;4.63;;;;;;;13.55;100.00;101354.59;5156132;27;20050;-53
2023/06/09 03:47:56;;;;;;;14.57;4.82;;;;;;;13.54;100.00;101355.59;5156939;27;20489;-50
2023/06/09 03:50:25;;;;;;;14.48;4.47;;;;;;;13.59;100.00;101356.09;5155656;27;20045;-52
2023/06/09 03:52:53;;;;;;;15.32;5.18;;;;;;;13.53;100.00;101359.19;5154199;27;20476;-52
2023/06/09 03:55:24;;;;;;;14.82;4.57;;;;;;;13.60;100.00;101356.94;5154489;27;20061;-56
2023/06/09 03:57:52;;;;;;;16.70;5.40;;;;;;;13.51;100.00;101356.63;5156917;27;20122;-51
2023/06/09 04:00:21;;;;;;;12.70;4.63;;;;;;;13.51;100.00;101358.41;5156557;27;20087;-53
2023/06/09 04:02:49;;;;;;;13.60;4.97;;;;;;;13.51;100.00;101355.78;5156498;27;20051;-52
2023/06/09 04:05:18;;;;;;;13.68;4.35;;;;;;;13.54;100.00;101355.59;5153006;27;20070;-53
2023/06/09 04:07:46;;;;;;;18.48;5.70;;;;;;;13.49;100.00;101357.69;5155304;27;20043;-51
2023/06/09 04:10:14;;;;;;;14.27;4.50;;;;;;;13.52;100.00;101358.34;5136413;27;20051;-63
2023/06/09 04:12:43;;;;;;;14.60;4.80;;;;;;;13.50;100.00;101356.75;5151966;27;20450;-64
2023/06/09 04:15:12;;;;;;;13.20;4.57;;;;;;;13.42;100.00;101362.56;5156491;27;20134;-64
2023/06/09 04:17:40;;;;;;;12.70;4.93;;;;;;;13.45;100.00;101361.50;5156750;27;20050;-65
2023/06/09 04:20:09;;;;;;;16.52;4.95;;;;;;;13.47;100.00;101363.09;5156494;27;20045;-64
2023/06/09 04:22:46;;;;;;;14.77;5.15;;;;;;;13.56;100.00;101369.53;5154681;27;20078;-63
2023/06/09 04:25:14;;;;;;;16.48;5.43;;;;;;;13.61;100.00;101372.69;5152730;27;20050;-64
2023/06/09 04:27:44;;;;;;;14.82;4.80;;;;;;;13.58;100.00;101372.06;5151655;27;20070;-64
2023/06/09 04:30:13;;;;;;;18.27;5.03;;;;;;;13.57;100.00;101368.56;5156364;27;20051;-64
2023/06/09 04:32:41;;;;;;;12.07;4.90;;;;;;;13.59;100.00;101368.47;5156308;27;20122;-65
2023/06/09 04:35:10;;;;;;;15.00;5.45;;;;;;;13.65;100.00;101374.16;5156309;27;20047;-64
2023/06/09 04:37:38;;;;;;;14.23;4.95;;;;;;;13.63;100.00;101384.03;5156560;27;20388;-64
2023/06/09 04:40:09;;;;;;;12.07;5.15;;;;;;;13.62;100.00;101376.19;5156110;27;20111;-63
2023/06/09 04:42:39;;;;;;;16.30;5.38;;;;;;;13.58;100.00;101372.91;5154772;27;20034;-65
2023/06/09 04:45:11;;;;;;;18.67;5.28;;;;;;;13.60;100.00;101381.56;5153132;27;20400;-65
2023/06/09 04:47:40;;;;;;;13.93;5.43;;;;;;;13.67;100.00;101387.28;5136130;27;20046;-65
2023/06/09 04:50:10;;;;;;;16.02;5.72;;;;;;;13.68;100.00;101378.41;5137702;27;20055;-54
2023/06/09 04:52:39;;;;;;;16.10;4.97;;;;;;;13.73;100.00;101386.00;5152791;27;20114;-64
2023/06/09 04:55:08;;;;;;;16.17;6.32;;;;;;;13.78;100.00;101381.25;5134252;27;20042;-63
2023/06/09 04:57:40;;;;;;;20.38;5.28;;;;;;;13.91;100.00;101379.44;5137333;27;20061;-64
2023/06/09 05:00:15;;;;;;;17.25;6.20;;;;;;;13.96;100.00;101382.59;5155231;27;20047;-64
2023/06/09 05:02:44;;;;;;;18.80;6.10;;;;;;;14.09;100.00;101382.56;5153466;27;20114;-65
2023/06/09 05:05:13;;;;;;;15.70;6.05;;;;;;;14.13;100.00;101389.31;5151694;27;20051;-64
2023/06/09 05:07:42;;;;;;;16.55;6.10;;;;;;;14.20;100.00;101385.25;5155340;27;20039;-64
2023/06/09 05:10:10;;;;;;;16.02;6.10;;;;;;;14.22;100.00;101387.81;5155567;27;20042;-64
2023/06/09 05:12:39;;;;;;;13.20;5.75;;;;;;;14.24;100.00;101380.59;5155329;27;20061;-65
2023/06/09 05:15:11;;;;;;;15.00;6.18;;;;;;;14.26;100.00;101386.66;5155265;27;20107;-65
2023/06/09 05:17:41;;;;;;;14.45;6.15;;;;;;;14.33;100.00;101385.25;5155346;27;20046;-65
2023/06/09 05:20:10;;;;;;;18.70;6.90;;;;;;;14.39;100.00;101383.94;5155378;27;20108;-64
2023/06/09 05:22:39;;;;;;;15.60;5.78;;;;;;;14.46;100.00;101384.34;5155272;27;20378;-64
2023/06/09 05:25:09;;;;;;;19.10;5.93;;;;;;;14.53;100.00;101380.28;5136419;27;20051;-52
2023/06/09 05:27:37;;;;;;;14.48;6.47;;;;;;;14.58;100.00;101383.44;5155285;27;20483;-54
2023/06/09 05:30:07;;;;;;;17.35;6.55;;;;;;;14.58;100.00;101388.75;5154774;27;20492;-50
2023/06/09 05:32:37;;;;;;;13.48;6.30;;;;;;;14.73;100.00;101386.78;5152368;27;20571;-65
2023/06/09 05:35:06;;;;;;;14.57;6.78;;;;;;;14.84;100.00;101393.94;5151308;27;20492;-51
2023/06/09 05:37:34;;;;;;;21.23;6.60;;;;;;;14.95;100.00;101390.50;5151836;27;20422;-53
2023/06/09 05:40:05;;;;;;;19.00;6.47;;;;;;;15.06;100.00;101387.03;5151346;27;20532;-51
2023/06/09 05:42:34;;;;;;;18.58;7.43;;;;;;;15.09;100.00;101394.75;5149820;27;20043;-52
2023/06/09 05:45:02;;;;;;;14.70;6.03;;;;;;;15.21;100.00;101389.38;5152201;27;20509;-53
2023/06/09 05:47:31;;;;;;;14.32;6.63;;;;;;;15.32;100.00;101401.78;5154854;27;20495;-55
2023/06/09 05:50:01;;;;;;;16.92;6.95;;;;;;;15.41;100.00;101391.47;5135798;27;20051;-65
2023/06/09 05:52:29;;;;;;;20.08;7.40;;;;;;;15.52;100.00;101386.16;5152918;27;20054;-55
2023/06/09 05:54:58;;;;;;;13.75;6.47;;;;;;;15.62;100.00;101388.94;5151082;27;20068;-53
2023/06/09 05:57:29;;;;;;;17.33;6.15;;;;;;;15.76;100.00;101385.19;5131069;27;20111;-54
2023/06/09 05:59:58;;;;;;;17.85;6.53;;;;;;;15.87;100.00;101393.22;5152315;27;20087;-65
2023/06/09 06:02:27;;;;;;;21.58;6.75;;;;;;;15.95;100.00;101396.09;5154397;27;20043;-65
2023/06/09 06:04:55;;;;;;;14.38;6.63;;;;;;;16.12;100.00;101385.94;5154150;27;20055;-64
2023/06/09 06:07:25;;;;;;;17.05;6.97;;;;;;;16.15;100.00;101386.53;5154625;27;20453;-64
2023/06/09 06:09:53;;;;;;;15.25;7.05;;;;;;;16.21;100.00;101393.13;5154995;27;20047;-65
2023/06/09 06:12:21;;;;;;;16.70;6.38;;;;;;;16.26;100.00;101383.00;5135844;27;20042;-65
2023/06/09 06:14:50;;;;;;;15.68;6.97;;;;;;;16.30;100.00;101387.09;5153046;27;20047;-65
2023/06/09 06:17:18;;;;;;;17.33;6.97;;;;;;;16.42;100.00;101381.78;5132286;27;20479;-65
2023/06/09 06:19:46;;;;;;;17.25;7.40;;;;;;;16.56;100.00;101386.78;5153986;27;20601;-65
2023/06/09 06:22:14;;;;;;;17.10;6.70;;;;;;;16.68;100.00;101388.44;5154404;27;20034;-66
2023/06/09 06:24:44;;;;;;;16.35;7.20;;;;;;;16.80;100.00;101383.09;5154069;27;20045;-65
2023/06/09 06:27:12;;;;;;;17.38;6.47;;;;;;;16.92;100.00;101381.25;5152296;27;20406;-64
2023/06/09 06:29:40;;;;;;;14.90;6.82;;;;;;;17.03;100.00;101384.69;5151317;27;20042;-64
2023/06/09 06:32:09;;;;;;;15.02;7.60;;;;;;;17.19;100.00;101381.59;5132058;27;20119;-65
2023/06/09 06:34:37;;;;;;;16.20;6.57;;;;;;;17.22;100.00;101380.50;5150663;27;20047;-65
2023/06/09 06:37:05;;;;;;;14.45;6.65;;;;;;;17.39;100.00;101381.69;5150969;27;20496;-54
2023/06/09 06:39:33;;;;;;;16.95;7.55;;;;;;;17.49;100.00;101387.06;5150449;27;20454;-53
2023/06/09 06:42:03;;;;;;;16.58;7.57;;;;;;;17.53;100.00;101380.50;5149616;27;20122;-64
2023/06/09 06:44:32;;;;;;;13.70;7.32;;;;;;;17.64;100.00;101383.09;5152330;27;20153;-64
2023/06/09 06:47:00;;;;;;;16.33;7.22;;;;;;;17.72;100.00;101383.28;5154059;27;20381;-66
2023/06/09 06:49:28;;;;;;;14.00;7.60;;;;;;;17.90;100.00;101385.25;5153967;27;20046;-65
2023/06/09 06:51:59;;;;;;;16.63;7.38;;;;;;;18.09;100.00;101384.50;5135415;27;20482;-65
2023/06/09 06:54:27;;;;;;;14.25;6.32;;;;;;;18.27;100.00;101386.53;5153928;27;20523;-65
2023/06/09 06:56:55;;;;;;;15.93;7.32;;;;;;;18.45;100.00;101389.34;5154130;27;20043;-66
2023/06/09 06:59:25;;;;;;;17.23;7.47;;;;;;;18.60;100.00;101382.66;5153910;27;20073;-65
2023/06/09 07:01:54;;;;;;;13.07;7.30;;;;;;;18.69;100.00;101381.81;5150591;27;20039;-65
2023/06/09 07:04:22;;;;;;;15.68;7.45;;;;;;;18.83;100.00;101388.53;5132406;27;20497;-66
2023/06/09 07:06:51;;;;;;;14.13;6.68;;;;;;;18.97;100.00;101387.28;5153828;27;20039;-67
2023/06/09 07:09:19;;;;;;;17.08;7.20;;;;;;;19.14;100.00;101385.75;5134954;27;20099;-66
2023/06/09 07:11:47;;;;;;;14.02;7.45;;;;;;;19.31;100.00;101386.81;5150050;27;20054;-56
2023/06/09 07:14:15;;;;;;;13.65;6.65;;;;;;;19.48;100.00;101389.72;5150166;27;20031;-52
2023/06/09 07:16:46;;;;;;;17.30;6.75;;;;;;;19.64;100.00;101376.59;5154394;27;20125;-56
2023/06/09 07:19:14;;;;;;;15.40;7.47;;;;;;;19.72;100.00;101378.53;5154291;27;20078;-56
2023/06/09 07:21:45;;;;;;;15.50;7.65;;;;;;;19.79;100.00;101373.47;5155786;27;20049;-54
2023/06/09 07:24:13;;;;;;;15.85;7.63;;;;;;;19.90;100.00;101373.28;5139224;27;20050;-56
2023/06/09 07:26:43;;;;;;;14.70;6.57;;;;;;;20.05;100.00;101377.13;5157645;27;20126;-65
2023/06/09 07:29:12;;;;;;;15.68;8.10;;;;;;;20.27;100.00;101369.69;5157725;27;20403;-66
2023/06/09 07:31:40;;;;;;;18.30;7.35;;;;;;;20.46;100.00;101371.38;5157403;27;20034;-66
2023/06/09 07:34:10;;;;;;;15.77;7.22;;;;;;;20.70;100.00;101380.66;5157614;27;20039;-65
2023/06/09 07:36:40;;;;;;;15.70;7.82;;;;;;;20.84;100.00;101373.94;5157520;27;20050;-56
2023/06/09 07:39:08;;;;;;;15.38;7.20;;;;;;;21.02;100.00;101369.38;5154400;27;20394;-56
2023/06/09 07:41:36;;;;;;;15.52;7.38;;;;;;;21.05;100.00;101368.22;5152759;27;20524;-54
2023/06/09 07:44:06;;;;;;;12.93;7.28;;;;;;;21.21;100.00;101373.69;5157137;27;20670;-55
2023/06/09 07:46:35;;;;;;;16.10;7.70;;;;;;;21.48;100.00;101368.34;5155836;27;20050;-56
2023/06/09 07:49:03;;;;;;;12.68;7.22;;;;;;;21.66;96.36;101365.63;5154276;27;20050;-56
2023/06/09 07:51:36;;;;;;;17.48;7.50;;;;;;;21.88;98.07;101370.41;5153436;27;20038;-54
2023/06/09 07:54:05;;;;;;;15.98;6.63;;;;;;;22.11;97.58;101369.78;5138245;27;20089;-57
2023/06/09 07:56:33;;;;;;;16.58;7.38;;;;;;;22.30;98.98;101371.34;5156119;27;20035;-56
2023/06/09 07:59:02;;;;;;;15.27;7.40;;;;;;;22.47;95.11;101376.75;5153901;27;20095;-56
2023/06/09 08:01:30;;;;;;;13.90;6.95;;;;;;;22.69;91.33;101384.16;5155258;27;20043;-56
2023/06/09 08:04:01;;;;;;;13.98;6.72;;;;;;;22.67;90.07;101383.47;5155027;27;20379;-67
2023/06/09 08:06:30;;;;;;;16.98;7.50;;;;;;;22.81;87.87;101378.44;5153114;27;20043;-65
2023/06/09 08:08:59;;;;;;;14.90;7.78;;;;;;;22.90;89.01;101380.13;5156440;27;20504;-55
2023/06/09 08:11:27;;;;;;;17.92;7.45;;;;;;;23.15;87.88;101380.13;5133693;27;20093;-55
2023/06/09 08:13:56;;;;;;;16.30;7.10;;;;;;;23.32;89.21;101381.78;5153594;27;20053;-55
2023/06/09 08:16:24;;;;;;;13.40;6.88;;;;;;;23.55;90.40;101378.38;5156324;27;20043;-52
2023/06/09 08:18:55;;;;;;;12.77;6.60;;;;;;;23.77;87.79;101380.28;5156621;27;20062;-56
2023/06/09 08:21:23;;;;;;;13.65;7.65;;;;;;;23.94;85.76;101374.88;5152921;27;20443;-55
2023/06/09 08:23:52;;;;;;;13.15;7.03;;;;;;;23.98;85.99;101370.00;5153575;27;20080;-55
2023/06/09 08:26:21;;;;;;;15.25;6.88;;;;;;;24.24;84.09;101370.53;5152527;27;20049;-56
2023/06/09 08:28:51;;;;;;;12.60;7.55;;;;;;;24.49;82.99;101370.34;5153320;27;20049;-55
2023/06/09 08:31:20;;;;;;;13.60;6.90;;;;;;;24.65;81.83;101366.75;5152985;27;20053;-65
2023/06/09 08:33:48;;;;;;;12.60;6.43;;;;;;;24.93;79.44;101366.16;5156177;27;20053;-64
2023/06/09 08:36:17;;;;;;;13.23;6.80;;;;;;;25.11;80.31;101363.97;5156401;27;20071;-62
2023/06/09 08:38:45;;;;;;;13.02;6.97;;;;;;;25.20;77.81;101361.22;5154722;27;20054;-64
2023/06/09 08:41:16;;;;;;;13.80;7.32;;;;;;;25.47;75.50;101349.81;5152062;27;20099;-61
2023/06/09 08:43:46;;;;;;;12.38;6.70;;;;;;;25.50;76.57;101355.81;5156465;27;20058;-58
2023/06/09 08:46:17;;;;;;;13.25;7.45;;;;;;;25.54;76.77;101354.47;5156084;27;20038;-64
2023/06/09 08:48:51;;;;;;;15.68;8.00;;;;;;;25.60;74.68;101353.69;5153683;27;20508;-63
2023/06/09 08:51:21;;;;;;;14.38;6.90;;;;;;;25.85;76.70;101353.38;5152527;27;20174;-62
2023/06/09 08:53:52;;;;;;;13.73;7.10;;;;;;;25.95;74.01;101352.06;5152795;27;20565;-56
2023/06/09 08:56:22;;;;;;;14.85;7.07;;;;;;;26.17;74.65;101344.03;5152041;27;20042;-56
2023/06/09 08:58:53;;;;;;;13.38;7.53;;;;;;;26.29;75.22;101349.75;5155685;27;20114;-56
2023/06/09 09:01:21;;;;;;;18.15;7.30;;;;;;;26.49;70.83;101348.09;5135966;27;20076;-56
2023/06/09 09:03:50;;;;;;;14.98;6.82;;;;;;;26.57;72.88;101354.38;5152719;27;20070;-56
2023/06/09 09:06:19;;;;;;;14.80;6.47;;;;;;;26.78;70.09;101345.47;5133804;27;20054;-56
2023/06/09 09:08:48;;;;;;;16.63;6.88;;;;;;;26.88;69.99;101353.22;5152666;27;20047;-55
2023/06/09 09:11:16;;;;;;;13.85;6.68;;;;;;;27.11;70.47;101350.25;5152228;27;20043;-62
2023/06/09 09:13:48;;;;;;;16.80;7.20;;;;;;;27.13;67.35;101357.13;5155761;27;20041;-63
2023/06/09 09:16:18;;;;;;;12.30;7.13;;;;;;;27.31;66.50;101351.22;5155915;27;20049;-61
2023/06/09 09:18:49;;;;;;;14.55;7.28;;;;;;;27.22;68.63;101346.19;5155902;27;20107;-58
2023/06/09 09:21:22;;;;;;;16.40;7.07;;;;;;;27.40;68.90;101343.81;5155549;27;20034;-56
2023/06/09 09:23:57;;;;;;;14.10;7.10;;;;;;;27.55;68.34;101340.16;5155081;27;20088;-56
2023/06/09 09:26:29;;;;;;;12.00;7.20;;;;;;;27.72;65.55;101346.88;5151863;27;20371;-57
2023/06/09 09:29:02;;;;;;;15.10;7.20;;;;;;;27.92;64.98;101329.88;5152992;27;20085;-56
2023/06/09 09:31:37;;;;;;;13.98;7.32;;;;;;;28.10;62.01;101348.25;5151790;27;20142;-57
2023/06/09 09:34:05;;;;;;;12.68;7.55;;;;;;;28.23;60.60;101342.06;5151998;27;20574;-63
2023/06/09 09:36:37;;;;;;;13.32;7.00;;;;;;;28.47;60.10;101332.53;5151218;27;20065;-63
2023/06/09 09:39:06;;;;;;;14.15;7.53;;;;;;;28.63;60.84;101331.25;5150715;27;20055;-61
2023/06/09 09:41:34;;;;;;;13.30;6.68;;;;;;;28.86;60.89;101336.25;5150594;27;20057;-62
2023/06/09 09:44:02;;;;;;;11.95;6.50;;;;;;;28.96;57.75;101333.13;5152148;27;20066;-57
2023/06/09 09:46:38;;;;;;;10.23;6.55;;;;;;;28.99;55.01;101330.03;5154726;27;20046;-61
2023/06/09 09:49:07;;;;;;;14.00;8.30;;;;;;;29.02;54.08;101326.06;5155083;27;20473;-57
2023/06/09 09:51:37;;;;;;;11.95;6.47;;;;;;;29.34;58.56;101332.44;5153442;27;20373;-57
2023/06/09 09:54:06;;;;;;;13.07;6.68;;;;;;;29.49;55.41;101324.91;5151667;27;20042;-57
2023/06/09 09:56:37;;;;;;;12.68;6.57;;;;;;;29.50;53.56;101321.16;5131971;27;20049;-57
2023/06/09 09:59:06;;;;;;;11.02;5.85;;;;;;;29.59;54.78;101323.63;5151728;27;20046;-57
2023/06/09 10:01:34;;;;;;;12.02;6.28;;;;;;;29.53;53.27;101317.16;5154951;27;20035;-57
2023/06/09 10:04:08;;;;;;;11.75;6.85;;;;;;;29.64;50.18;101318.38;5152996;27;20107;-62
2023/06/09 10:06:39;;;;;;;15.43;6.55;;;;;;;29.73;54.09;101314.38;5151207;27;20049;-57
2023/06/09 10:09:08;;;;;;;11.18;6.22;;;;;;;30.03;53.61;101318.41;5150637;27;20133;-62
2023/06/09 10:11:38;;;;;;;11.70;5.80;;;;;;;30.37;53.09;101325.25;5153722;27;20043;-62
2023/06/09 10:14:06;;;;;;;12.45;6.47;;;;;;;30.26;51.28;101315.94;5151254;27;20599;-62
2023/06/09 10:16:36;;;;;;;11.68;6.32;;;;;;;30.37;50.93;101319.00;5134192;27;20042;-57
2023/06/09 10:19:06;;;;;;;12.02;7.00;;;;;;;30.38;49.67;101315.22;5135434;27;20051;-57
2023/06/09 10:21:36;;;;;;;12.02;6.03;;;;;;;30.52;48.64;101314.13;5152877;27;20505;-56
2023/06/09 10:24:10;;;;;;;10.73;6.03;;;;;;;30.70;51.63;101316.03;5154482;27;20043;-57
2023/06/09 10:26:43;;;;;;;11.60;5.30;;;;;;;30.92;50.66;101318.34;5154451;27;20417;-61
2023/06/09 10:29:14;;;;;;;13.18;5.38;;;;;;;31.05;48.82;101312.81;5154280;27;20157;-61
2023/06/09 10:31:46;;;;;;;8.30;5.55;;;;;;;31.39;47.38;101315.13;5154639;27;20442;-62
2023/06/09 10:34:17;;;;;;;9.90;6.03;;;;;;;31.52;45.50;101313.09;5154300;27;20493;-62
2023/06/09 10:36:54;;;;;;;12.00;5.93;;;;;;;31.51;44.24;101313.31;5132671;27;20122;-57
2023/06/09 10:39:26;;;;;;;8.93;5.28;;;;;;;31.64;44.30;101307.72;5150234;27;20125;-58
2023/06/09 10:41:59;;;;;;;;;;;;;;;31.64;43.41;101312.34;5153169;27;20139;-59
2023/06/09 10:44:42;;;;;;;10.93;5.60;;;;;;;31.59;44.57;101307.59;5154480;27;20373;-59
2023/06/09 10:47:10;;;;;;;10.88;5.25;;;;;;;31.68;44.72;101305.38;5154293;27;20087;-57
2023/06/09 10:49:45;;;;;;;10.48;5.43;;;;;;;31.83;44.75;101303.06;5152404;27;20446;-58
2023/06/09 10:52:48;;;;;;;7.40;4.40;;;;;;;32.03;41.95;101296.53;5150518;27;20042;-61
2023/06/09 10:55:17;;;;;;;8.85;4.60;;;;;;;32.28;41.29;101290.91;5146208;27;20518;-61
2023/06/09 10:57:45;;;;;;;9.82;4.88;;;;;;;32.41;40.13;101298.03;5149830;27;20465;-62
2023/06/09 11:00:16;;;;;;;9.75;4.70;;;;;;;32.50;39.52;101293.88;5151013;27;20085;-61
2023/06/09 11:02:49;;;;;;;9.93;4.68;;;;;;;32.54;38.95;101296.97;5150980;27;20035;-58
2023/06/09 11:05:21;;;;;;;10.45;5.15;;;;;;;32.52;39.22;101288.22;5131352;27;20067;-62
2023/06/09 11:07:51;;;;;;;8.43;4.55;;;;;;;32.79;38.98;101285.88;5152913;27;20060;-58
2023/06/09 11:10:28;;;;;;;10.98;5.07;;;;;;;32.83;36.27;101287.06;5154502;27;20051;-59
2023/06/09 11:12:57;;;;;;;7.70;4.30;;;;;;;33.02;39.10;101278.72;5134134;27;20076;-60
2023/06/09 11:16:01;;;;;;;8.48;4.28;;;;;;;33.39;38.00;101272.97;5150938;27;20354;-58
2023/06/09 11:18:31;;;;;;;8.70;4.95;;;;;;;33.45;36.07;101263.81;5150093;27;20076;-58
2023/06/09 11:21:19;;;;;;;9.73;4.55;;;;;;;33.44;36.15;101264.06;5149575;27;20043;-58
2023/06/09 11:24:03;;;;;;;7.70;4.53;;;;;;;33.62;35.56;101263.84;5131398;27;20047;-58
2023/06/09 11:26:37;;;;;;;9.98;4.38;;;;;;;33.54;35.38;101256.06;5152405;27;20104;-58